McKinleyville, California
Current Conditions -  °F | °C
As of 11:53 AM on Saturday 25 Oct 2014 (Local Time) from KACV Reporting Station
Overcast Overcast  
Wind Chill: 62°   Ceiling: 3100
Heat Index: 62°   Visibility: 10mi
Dew Point: 55°   Wind: 15mph
Humidity: 78%   Direction: 180°S
Pressure: 29.78"   Gusts: 29mph
Location:  40.94°N, 124.1°W
Report Text: KACV 251853Z AUTO 18013G25KT 10SM BKN031 OVC047 17/13 A2978 RMK AO2 PK WND 18028/1836 RAB01E11 SLP087 P0000 T01670128
Loading
Personal Weather Stations






























Interactive Weather Map
Tropical Storm Tracking
New forecast layout! Learn more

10-Day Weather Forecast

Advertisements
Track Severe Weather on mobile